createdAt,value
2022-10-23T05:03:57.828Z,81.60
2022-10-23T05:09:01.718Z,81.80
2022-10-23T05:14:05.446Z,82.30
2022-10-23T05:19:14.984Z,82.60
2022-10-23T05:24:19.359Z,82.70
2022-10-23T05:29:29.373Z,83.00
2022-10-23T05:34:39.388Z,83.60
2022-10-23T05:39:45.481Z,84.10
2022-10-23T05:44:49.116Z,84.20
2022-10-23T05:49:54.800Z,84.40
2022-10-23T05:54:58.654Z,84.60
2022-10-23T06:00:02.381Z,84.50
2022-10-23T06:05:18.242Z,84.70
2022-10-23T06:10:22.435Z,84.90
2022-10-23T06:15:27.796Z,85.10
2022-10-23T06:20:36.857Z,85.20
2022-10-23T06:25:41.717Z,85.30
2022-10-23T06:30:46.437Z,85.20
2022-10-23T06:35:51.384Z,85.40
2022-10-23T06:40:55.289Z,85.40
2022-10-23T06:46:02.325Z,85.90
2022-10-23T06:51:17.097Z,86.50
2022-10-23T06:56:21.019Z,86.80
2022-10-23T07:01:24.810Z,87.00
2022-10-23T07:06:33.431Z,87.20
2022-10-23T07:11:38.555Z,87.50
2022-10-23T07:16:42.316Z,87.70
2022-10-23T07:21:48.290Z,87.70
2022-10-23T07:26:52.417Z,87.70
2022-10-23T07:31:57.526Z,87.50
2022-10-23T07:37:05.921Z,87.90
2022-10-23T07:42:11.979Z,88.10
2022-10-23T07:47:17.336Z,88.30
2022-10-23T07:52:23.229Z,88.20
2022-10-23T07:57:29.455Z,88.30
2022-10-23T08:02:33.573Z,88.00
2022-10-23T08:07:38.883Z,88.20
2022-10-23T08:12:42.930Z,88.20
2022-10-23T08:17:46.960Z,87.90
2022-10-23T08:22:53.408Z,87.80
2022-10-23T08:27:58.008Z,87.20
2022-10-23T08:33:04.167Z,87.20
2022-10-23T08:38:09.112Z,87.10
2022-10-23T08:43:22.509Z,87.30
2022-10-23T08:48:32.655Z,87.50
2022-10-23T08:53:45.291Z,88.20
2022-10-23T08:58:53.953Z,88.30
2022-10-23T09:03:58.190Z,87.80
2022-10-23T09:09:21.520Z,86.90
2022-10-23T09:14:47.851Z,86.40
2022-10-23T09:20:00.352Z,84.80
2022-10-23T09:25:10.848Z,82.70
2022-10-23T09:30:25.796Z,80.30
2022-10-23T09:35:31.115Z,79.60
2022-10-23T09:40:41.533Z,78.60
2022-10-23T09:45:45.446Z,77.30
2022-10-23T09:50:52.521Z,77.40
2022-10-23T09:56:00.105Z,76.40
2022-10-23T10:01:04.211Z,75.30
2022-10-23T10:06:24.027Z,75.10
2022-10-23T10:11:36.181Z,74.00
2022-10-23T10:16:47.951Z,73.00
2022-10-23T10:21:58.060Z,71.50
2022-10-23T10:27:15.217Z,70.70
2022-10-23T10:32:32.517Z,70.00
2022-10-23T10:37:47.277Z,69.60
2022-10-23T10:43:11.022Z,69.30
2022-10-23T10:48:32.428Z,69.40
2022-10-23T10:53:53.345Z,68.90
2022-10-23T10:59:01.765Z,69.10
2022-10-23T11:04:12.618Z,69.10
2022-10-23T11:09:21.030Z,69.40
2022-10-23T11:14:28.257Z,70.70
2022-10-23T11:19:37.246Z,71.50
2022-10-23T11:25:28.705Z,71.90
2022-10-23T11:30:43.797Z,70.40
2022-10-23T11:35:58.475Z,69.20
2022-10-23T11:41:04.964Z,68.90
2022-10-23T11:46:29.589Z,68.90
2022-10-23T11:51:34.759Z,68.30
2022-10-23T11:56:38.881Z,68.70
2022-10-23T12:01:46.387Z,69.10
2022-10-23T12:06:54.036Z,69.40
2022-10-23T12:12:18.218Z,69.50
2022-10-23T12:17:37.282Z,69.20
2022-10-23T12:22:48.147Z,69.60
2022-10-23T12:27:59.104Z,69.90
2022-10-23T12:33:22.573Z,69.70
2022-10-23T12:38:31.309Z,68.10
2022-10-23T12:43:40.659Z,68.20
2022-10-23T12:48:50.874Z,67.80
2022-10-23T12:53:54.995Z,67.30
2022-10-23T12:59:01.428Z,65.70
2022-10-23T13:04:14.544Z,64.20
2022-10-23T13:09:25.269Z,61.80
2022-10-23T13:14:39.279Z,58.50
2022-10-23T13:19:47.035Z,57.60
2022-10-23T13:24:50.695Z,57.50
2022-10-23T13:29:54.658Z,56.10
2022-10-23T13:35:20.890Z,55.80
2022-10-23T13:40:27.955Z,55.10
2022-10-23T13:45:31.511Z,54.40
2022-10-23T13:50:37.066Z,54.30
2022-10-23T13:55:41.877Z,54.00
2022-10-23T14:00:48.729Z,53.90
2022-10-23T14:05:53.944Z,53.20
2022-10-23T14:10:57.484Z,53.00
2022-10-23T14:16:01.026Z,52.50
2022-10-23T14:21:07.893Z,53.00
2022-10-23T14:26:13.432Z,52.80
2022-10-23T14:31:19.094Z,53.70
2022-10-23T14:36:24.502Z,54.00
2022-10-23T14:41:28.480Z,54.50
2022-10-23T14:46:32.110Z,55.20
2022-10-23T14:51:37.008Z,55.80
2022-10-23T14:56:41.155Z,56.20
2022-10-23T15:01:48.448Z,56.40
2022-10-23T15:06:53.728Z,56.40
2022-10-23T15:11:57.323Z,56.80
2022-10-23T15:17:00.922Z,57.20
2022-10-23T15:22:05.871Z,57.90
2022-10-23T15:32:13.654Z,58.80
2022-10-23T15:37:18.596Z,59.70
2022-10-23T15:42:22.146Z,61.10
2022-10-23T15:47:25.745Z,62.40
2022-10-23T15:52:30.736Z,63.90
2022-10-23T15:57:34.308Z,64.40
2022-10-23T16:02:38.288Z,65.00
2022-10-23T16:07:43.313Z,66.10
2022-10-23T16:12:46.876Z,66.80
2022-10-23T16:17:50.502Z,67.60
2022-10-23T16:22:55.712Z,68.30
2022-10-23T16:28:00.318Z,69.10
2022-10-23T16:33:03.949Z,69.40
2022-10-23T16:38:08.916Z,69.60
2022-10-23T16:43:12.985Z,69.90
2022-10-23T16:48:17.337Z,70.20
2022-10-23T16:53:23.152Z,70.70
2022-10-23T16:58:27.839Z,71.20
2022-10-23T17:03:31.719Z,71.80
2022-10-23T17:08:37.048Z,72.60
2022-10-23T17:13:42.743Z,73.00
2022-10-23T17:18:46.723Z,73.50
2022-10-23T17:23:52.543Z,74.50
2022-10-23T17:28:57.563Z,76.10
2022-10-23T17:34:05.253Z,77.00
2022-10-23T17:39:12.007Z,78.00
2022-10-23T17:44:15.792Z,78.70
2022-10-23T17:49:19.502Z,79.60
2022-10-23T17:54:25.196Z,80.40
2022-10-23T17:59:28.884Z,81.30
2022-10-23T18:04:32.486Z,82.20
2022-10-23T18:09:37.471Z,83.00
2022-10-23T18:14:41.127Z,85.30
2022-10-23T18:19:44.738Z,87.60
2022-10-23T18:24:49.741Z,88.20
2022-10-23T18:29:54.086Z,87.80
2022-10-23T18:34:57.781Z,87.60
2022-10-23T18:40:02.747Z,88.20
2022-10-23T18:45:07.037Z,87.90
2022-10-23T18:50:11.317Z,89.20
2022-10-23T18:55:16.371Z,89.70
2022-10-23T19:00:20.015Z,90.00
2022-10-23T19:05:23.898Z,90.20
2022-10-23T19:10:31.812Z,90.30
2022-10-23T19:15:37.911Z,90.20
2022-10-23T19:20:43.696Z,90.00
2022-10-23T19:25:49.175Z,89.50
2022-10-23T19:30:54.201Z,88.80
2022-10-23T19:36:00.249Z,88.50
2022-10-23T19:41:07.834Z,88.70
2022-10-23T19:46:12.372Z,88.20
2022-10-23T19:51:16.612Z,89.30
2022-10-23T19:56:21.879Z,90.40
2022-10-23T20:01:27.039Z,90.80
2022-10-23T20:06:34.648Z,90.60
2022-10-23T20:11:41.368Z,90.20
2022-10-23T20:16:47.045Z,89.40
2022-10-23T20:21:51.340Z,87.90
2022-10-23T20:26:57.193Z,87.40
2022-10-23T20:32:01.005Z,87.50
2022-10-23T20:37:04.867Z,87.30
2022-10-23T20:42:09.981Z,87.10
2022-10-23T20:47:13.876Z,86.90
2022-10-23T20:52:17.479Z,86.50
2022-10-23T20:57:22.500Z,85.80
2022-10-23T21:02:26.221Z,85.60
2022-10-23T21:07:29.868Z,85.30
2022-10-23T21:12:34.884Z,84.90
2022-10-23T21:17:40.797Z,84.80
2022-10-23T21:22:45.034Z,84.60
2022-10-23T21:27:50.318Z,84.50
2022-10-23T21:32:53.972Z,84.50
2022-10-23T21:37:58.446Z,84.50
2022-10-23T21:43:03.612Z,84.30
2022-10-23T21:48:07.298Z,84.70
2022-10-23T21:53:10.978Z,84.80
2022-10-23T21:58:16.027Z,85.20
2022-10-23T22:03:19.681Z,85.30
2022-10-23T22:08:23.263Z,85.30
2022-10-23T22:13:28.329Z,85.60
2022-10-23T22:18:32.140Z,86.10
2022-10-23T22:23:36.334Z,86.50
2022-10-23T22:28:41.310Z,87.10
